Hovedside
METAR-TAF:

METAR-TAF

Lufthavner :

Bermuda, Bermuda

breddegrad: 32-22N, lengdegrad: 064-41W, høyde over havet: 6 m

Gjeldene værobservasjon

Denne rapporten ble laget for 38 minutter siden, klokken 19:55 UTC
Vind 20 kt fra Sørvest
Temperatur 25°C
Luftfuktighet 83%
Trykk 1007 hPa
Sikt 10 km eller mer
Få skyer i en høyde av 1800 ft
Få skyer i en høyde av 9000 ft
Spredte skyer i en høyde av 30000 ft

METAR: TXKF 181955Z 22020KT 9999 FEW018 FEW090 SCT300 25/22 Q1007

Tid: 16:33 (20:33 UTC)

Varsel

Denne rapporten ble laget for 3 timer og 2 minutter siden, klokken 17:31 UTC
Varsel gyldig fra 18. klokken 18 UTC til 19. klokken 18 UTC
Vind 16 kt fra Sør-sørvest
Sikt 10 km eller mer
Få skyer i en høyde av 2000 ft
Spredte skyer i en høyde av 6500 ft

TAF: TXKF 181731Z 1818/1918 20016KT 9999 FEW020 SCT065

Værobservasjoner og værvarsel for over 4000 flyplasser (METAR- og TAF-rapporter).

Tilgjengelige stasjoner er representert av de røde og gule prikkene på kartet.

Hold musepekeren over prikken for å se navnet på stasjonen.

Klikk så for å se værobservasjoner og -varsler.

For å forandre kartet kan du klikke på den grønne knappen med svart kryss for å zoome inn, på den grønne knappen med strek for å zoome ut, eller på de grønne pilene for å se tilstøtende kart.


METAR-TAF: